Maersk Visby — 9V8827 — position and weather

sailwx.info

Track history (hours):
 
Tides and Currents Weather Stations Pressure Air Temp Water Temp Dewpoint Dewpoint Depression Visibility Wind Speed Wind Dir Waves Ship Positions

Maersk Visby

Last reported at 2016-Apr-24 14:10 UTC. Time now 2016-May-06 12:59 UTC.
Position N 34°12' W 076°22'.
Warning: this ship's position is 11 days out of date.

Length 180 m; draft 9.2 m.

Type: Ship (hazmat cat A). MMSI: 564979000.

Date/timePositionNaut miles runAvg speedWind from/ knotsBaromVisibWave heightAir tempDewpointWater temp
2016-Apr-24 14:10N 34°12' W 076°22'4612.6
2016-Apr-24 10:30N 34°42' W 075°39'12210.1
2016-Apr-23 22:25N 36°44' W 075°41'8 9.3
2016-Apr-23 21:33N 36°50' W 075°48'9 8.6
2016-Apr-23 20:33N 36°55' W 075°56'1312.9
2016-Apr-23 19:33N 36°60' W 076°11'10 9.8
2016-Apr-23 18:34N 36°53' W 076°20'1 0.7
2016-Apr-23 17:31N 36°53' W 076°21'0 0.0
2016-Apr-23 16:31N 36°53' W 076°21'0 0.0
2016-Apr-23 15:31N 36°53' W 076°21'0 0.0
2016-Apr-23 14:31N 36°53' W 076°21'0 0.0
2016-Apr-23 13:31N 36°53' W 076°21'0 0.0
2016-Apr-23 12:31N 36°53' W 076°21'0 0.0
2016-Apr-23 11:32N 36°53' W 076°21'0 0.0
2016-Apr-23 10:32N 36°53' W 076°21'0 0.3
2016-Apr-23 09:33N 36°53' W 076°21'12 7.9
2016-Apr-23 08:04N 36°59' W 076°08'713.0
2016-Apr-23 07:33N 36°59' W 075°60'6615.7
2016-Apr-23 03:22N 38°03' W 076°13'3718.0
2016-Apr-23 01:18N 38°40' W 076°25'1317.3
2016-Apr-23 00:33N 38°52' W 076°24'1414.3
2016-Apr-22 23:33N 39°07' W 076°24'1110.6
2016-Apr-22 22:33N 39°14' W 076°33'1 0.9
2016-Apr-22 21:31N 39°15' W 076°33'0 0.0
2016-Apr-22 20:31N 39°15' W 076°33'0 0.0
2016-Apr-22 19:31N 39°15' W 076°33'0 0.0
2016-Apr-22 18:31N 39°15' W 076°33'0 0.0
2016-Apr-22 17:31N 39°15' W 076°33'0 0.0
2016-Apr-22 16:31N 39°15' W 076°33'0 0.0
2016-Apr-22 15:31N 39°15' W 076°33'0 0.0
2016-Apr-22 14:33N 39°15' W 076°33'6 5.9
2016-Apr-22 13:33N 39°11' W 076°27'1212.2
2016-Apr-22 12:33N 38°59' W 076°23'1817.9
2016-Apr-22 11:33N 38°42' W 076°26'4518.0
2016-Apr-22 09:04N 37°58' W 076°11'5916.1
2016-Apr-22 05:26N 37°00' W 076°02'910.1
2016-Apr-22 04:34N 36°54' W 075°54'14814.1
2016-Apr-21 18:06N 38°51' W 073°58'1018.1
2016-Apr-21 17:33N 39°01' W 073°57'1818.2
2016-Apr-21 16:33N 39°19' W 073°55'1818.2
2016-Apr-21 15:33N 39°37' W 073°53'1818.0
2016-Apr-21 14:33N 39°54' W 073°51'2512.6
2016-Apr-21 12:33N 40°20' W 073°49'8 8.4
2016-Apr-21 11:33N 40°28' W 073°52'1110.9
2016-Apr-21 10:34N 40°35' W 074°02'6 6.4
2016-Apr-21 09:33N 40°39' W 074°09'2 1.9
2016-Apr-21 08:31N 40°41' W 074°09'0 0.0
2016-Apr-21 07:28N 40°41' W 074°09'0 0.0
2016-Apr-21 06:31N 40°41' W 074°09'0 0.0
2016-Apr-21 05:31N 40°41' W 074°09'0 0.0
2016-Apr-21 04:31N 40°41' W 074°09'0 0.0
2016-Apr-21 03:31N 40°41' W 074°09'0 0.0
2016-Apr-21 02:31N 40°41' W 074°09'0 0.0
2016-Apr-21 01:31N 40°41' W 074°09'0 0.0
2016-Apr-21 00:31N 40°41' W 074°09'0 0.2
2016-Apr-20 23:28N 40°41' W 074°09'0 0.0
2016-Apr-20 22:28N 40°41' W 074°09'0 0.0
2016-Apr-20 21:31N 40°41' W 074°09'0 0.0
2016-Apr-20 20:31N 40°41' W 074°09'0 0.0
2016-Apr-20 19:31N 40°41' W 074°09'0 0.0
2016-Apr-20 18:31N 40°41' W 074°09'0 0.0
2016-Apr-20 17:31N 40°41' W 074°09'0 0.0
2016-Apr-20 16:31N 40°41' W 074°09'0 0.0
2016-Apr-20 15:31N 40°41' W 074°09'0 0.0
2016-Apr-20 14:31N 40°41' W 074°09'0 0.0
2016-Apr-20 13:31N 40°41' W 074°09'0 0.0
2016-Apr-20 12:25N 40°41' W 074°09'0 0.0
2016-Apr-20 11:31N 40°41' W 074°09'2 2.5
2016-Apr-20 10:34N 40°39' W 074°09'6 6.0
2016-Apr-20 09:33N 40°36' W 074°02'5 4.8
2016-Apr-20 08:34N 40°31' W 073°60'1110.7
2016-Apr-20 07:33N 40°26' W 073°47'  
Track history (hours):
 
Tides and Currents Weather Stations Pressure Air Temp Water Temp Dewpoint Dewpoint Depression Visibility Wind Speed Wind Dir Waves Ship Positions

Maersk Visby

Last reported at 2016-Apr-24 14:10 UTC. Time now 2016-May-06 12:59 UTC.
Position N 34°12' W 076°22'.
Warning: this ship's position is 11 days out of date.

Length 180 m; draft 9.2 m.

Type: Ship (hazmat cat A). MMSI: 564979000.

Date/timePositionNaut miles runAvg speedWind from/ knotsBaromVisibWave heightAir tempDewpointWater temp
2016-Apr-24 14:10N 34°12' W 076°22'4612.6
2016-Apr-24 10:30N 34°42' W 075°39'12210.1
2016-Apr-23 22:25N 36°44' W 075°41'8 9.3
2016-Apr-23 21:33N 36°50' W 075°48'9 8.6
2016-Apr-23 20:33N 36°55' W 075°56'1312.9
2016-Apr-23 19:33N 36°60' W 076°11'10 9.8
2016-Apr-23 18:34N 36°53' W 076°20'1 0.7
2016-Apr-23 17:31N 36°53' W 076°21'0 0.0
2016-Apr-23 16:31N 36°53' W 076°21'0 0.0
2016-Apr-23 15:31N 36°53' W 076°21'0 0.0
2016-Apr-23 14:31N 36°53' W 076°21'0 0.0
2016-Apr-23 13:31N 36°53' W 076°21'0 0.0
2016-Apr-23 12:31N 36°53' W 076°21'0 0.0
2016-Apr-23 11:32N 36°53' W 076°21'0 0.0
2016-Apr-23 10:32N 36°53' W 076°21'0 0.3
2016-Apr-23 09:33N 36°53' W 076°21'12 7.9
2016-Apr-23 08:04N 36°59' W 076°08'713.0
2016-Apr-23 07:33N 36°59' W 075°60'6615.7
2016-Apr-23 03:22N 38°03' W 076°13'3718.0
2016-Apr-23 01:18N 38°40' W 076°25'1317.3
2016-Apr-23 00:33N 38°52' W 076°24'1414.3
2016-Apr-22 23:33N 39°07' W 076°24'1110.6
2016-Apr-22 22:33N 39°14' W 076°33'1 0.9
2016-Apr-22 21:31N 39°15' W 076°33'0 0.0
2016-Apr-22 20:31N 39°15' W 076°33'0 0.0
2016-Apr-22 19:31N 39°15' W 076°33'0 0.0
2016-Apr-22 18:31N 39°15' W 076°33'0 0.0
2016-Apr-22 17:31N 39°15' W 076°33'0 0.0
2016-Apr-22 16:31N 39°15' W 076°33'0 0.0
2016-Apr-22 15:31N 39°15' W 076°33'0 0.0
2016-Apr-22 14:33N 39°15' W 076°33'6 5.9
2016-Apr-22 13:33N 39°11' W 076°27'1212.2
2016-Apr-22 12:33N 38°59' W 076°23'1817.9
2016-Apr-22 11:33N 38°42' W 076°26'4518.0
2016-Apr-22 09:04N 37°58' W 076°11'5916.1
2016-Apr-22 05:26N 37°00' W 076°02'910.1
2016-Apr-22 04:34N 36°54' W 075°54'14814.1
2016-Apr-21 18:06N 38°51' W 073°58'1018.1
2016-Apr-21 17:33N 39°01' W 073°57'1818.2
2016-Apr-21 16:33N 39°19' W 073°55'1818.2
2016-Apr-21 15:33N 39°37' W 073°53'1818.0
2016-Apr-21 14:33N 39°54' W 073°51'2512.6
2016-Apr-21 12:33N 40°20' W 073°49'8 8.4
2016-Apr-21 11:33N 40°28' W 073°52'1110.9
2016-Apr-21 10:34N 40°35' W 074°02'6 6.4
2016-Apr-21 09:33N 40°39' W 074°09'2 1.9
2016-Apr-21 08:31N 40°41' W 074°09'0 0.0
2016-Apr-21 07:28N 40°41' W 074°09'0 0.0
2016-Apr-21 06:31N 40°41' W 074°09'0 0.0
2016-Apr-21 05:31N 40°41' W 074°09'0 0.0
2016-Apr-21 04:31N 40°41' W 074°09'0 0.0
2016-Apr-21 03:31N 40°41' W 074°09'0 0.0
2016-Apr-21 02:31N 40°41' W 074°09'0 0.0
2016-Apr-21 01:31N 40°41' W 074°09'0 0.0
2016-Apr-21 00:31N 40°41' W 074°09'0 0.2
2016-Apr-20 23:28N 40°41' W 074°09'0 0.0
2016-Apr-20 22:28N 40°41' W 074°09'0 0.0
2016-Apr-20 21:31N 40°41' W 074°09'0 0.0
2016-Apr-20 20:31N 40°41' W 074°09'0 0.0
2016-Apr-20 19:31N 40°41' W 074°09'0 0.0
2016-Apr-20 18:31N 40°41' W 074°09'0 0.0
2016-Apr-20 17:31N 40°41' W 074°09'0 0.0
2016-Apr-20 16:31N 40°41' W 074°09'0 0.0
2016-Apr-20 15:31N 40°41' W 074°09'0 0.0
2016-Apr-20 14:31N 40°41' W 074°09'0 0.0
2016-Apr-20 13:31N 40°41' W 074°09'0 0.0
2016-Apr-20 12:25N 40°41' W 074°09'0 0.0
2016-Apr-20 11:31N 40°41' W 074°09'2 2.5
2016-Apr-20 10:34N 40°39' W 074°09'6 6.0
2016-Apr-20 09:33N 40°36' W 074°02'5 4.8
2016-Apr-20 08:34N 40°31' W 073°60'1110.7
2016-Apr-20 07:33N 40°26' W 073°47'  

Dump ship's entire track history